Time;durP1;ratioP1;P1;durP2;ratioP2;P2;SDS_P1;SDS_P2;PMS_P1;PMS_P2;Temp;Humidity;BMP_temperature;BMP_pressure;BME280_temperature;BME280_humidity;BME280_pressure;Samples;Min_cycle;Max_cycle;Signal;HPM_P1;HPM_P2
2022/04/27 00:00:27;;;;;;;18.77;2.10;;;;;;;20.65;47.09;99698.97;7311842;19;130591;-35
2022/04/27 00:02:52;;;;;;;25.27;2.55;;;;;;;20.63;46.58;99693.03;7309249;19;129380;-33
2022/04/27 00:05:18;;;;;;;21.40;2.58;;;;;;;20.69;47.32;99688.13;7311103;19;129494;-36
2022/04/27 00:07:43;;;;;;;23.83;2.20;;;;;;;20.72;46.77;99692.28;7311923;19;129200;-35
2022/04/27 00:10:09;;;;;;;20.70;1.95;;;;;;;20.73;47.12;99694.75;7311100;19;129238;-38
2022/04/27 00:12:35;;;;;;;18.95;1.98;;;;;;;20.69;46.25;99703.00;7308805;19;132108;-43
2022/04/27 00:15:00;;;;;;;20.98;2.17;;;;;;;20.63;46.20;99687.81;7310875;19;130304;-38
2022/04/27 00:17:25;;;;;;;20.98;2.20;;;;;;;20.73;46.29;99701.75;7312179;19;129000;-40
2022/04/27 00:19:50;;;;;;;25.23;2.33;;;;;;;20.80;45.80;99695.06;7310397;19;153467;-43
2022/04/27 00:22:16;;;;;;;14.30;1.67;;;;;;;20.97;47.36;99697.06;7309482;19;134413;-37
2022/04/27 00:24:41;;;;;;;28.40;2.67;;;;;;;20.94;48.37;99696.47;7309983;19;153219;-41
2022/04/27 00:27:06;;;;;;;16.90;1.65;;;;;;;20.96;49.23;99695.38;7309705;19;142722;-39
2022/04/27 00:29:32;;;;;;;22.63;2.47;;;;;;;20.99;48.90;99697.75;7309111;19;152955;-38
2022/04/27 00:31:57;;;;;;;40.53;4.17;;;;;;;21.01;49.70;99703.66;7308610;19;129034;-39
2022/04/27 00:34:23;;;;;;;19.52;2.00;;;;;;;21.07;49.68;99703.16;7309754;19;158323;-40
2022/04/27 00:36:48;;;;;;;31.00;3.17;;;;;;;21.07;49.96;99708.38;7309987;19;129846;-41
2022/04/27 00:39:13;;;;;;;16.90;1.77;;;;;;;21.01;50.00;99693.22;7310927;19;128941;-41
2022/04/27 00:41:39;;;;;;;20.63;2.03;;;;;;;21.07;49.65;99707.56;7309146;19;158114;-42
2022/04/27 00:44:04;;;;;;;28.52;2.40;;;;;;;21.07;49.80;99708.38;7309140;19;158938;-40
2022/04/27 00:46:29;;;;;;;15.82;1.67;;;;;;;21.08;49.06;99709.19;7310048;19;137035;-41
2022/04/27 00:48:54;;;;;;;30.15;3.10;;;;;;;21.07;50.55;99703.16;7309507;19;154024;-39
2022/04/27 00:51:22;;;;;;;20.83;2.17;;;;;;;21.05;48.50;99705.06;7308800;19;137488;-42
2022/04/27 00:53:51;;;;;;;27.45;2.83;;;;;;;20.67;47.31;99720.56;7309474;19;129300;-42
2022/04/27 00:56:18;;;;;;;39.53;3.45;;;;;;;20.62;47.14;99720.97;7307938;19;129273;-38
2022/04/27 00:58:43;;;;;;;;;;;;;;;20.62;46.49;99718.38;7311548;19;129028;-39
2022/04/27 01:01:09;;;;;;;18.52;1.92;;;;;;;20.66;47.21;99724.13;7310996;19;131376;-40
2022/04/27 01:03:36;;;;;;;5.43;0.80;;;;;;;20.61;47.01;99715.84;7307705;19;158619;-42
2022/04/27 01:06:02;;;;;;;17.00;1.77;;;;;;;20.68;46.48;99720.44;7309614;19;128978;-41
2022/04/27 01:08:27;;;;;;;21.13;2.20;;;;;;;20.76;46.29;99725.00;7309398;19;129204;-36
2022/04/27 01:10:53;;;;;;;28.50;2.78;;;;;;;20.72;46.31;99728.84;7307792;19;159346;-41
2022/04/27 01:13:18;;;;;;;21.20;2.25;;;;;;;20.76;47.04;99729.41;7309139;19;156242;-37
2022/04/27 01:15:43;;;;;;;31.80;3.35;;;;;;;20.82;46.88;99731.50;7308653;19;129467;-41
2022/04/27 01:18:09;;;;;;;11.23;1.20;;;;;;;20.76;46.19;99730.22;7309888;19;147404;-40
2022/04/27 01:20:43;;;;;;;25.17;2.38;;;;;;;20.97;47.13;99723.22;7310192;19;130696;-39
2022/04/27 01:23:08;;;;;;;12.52;1.40;;;;;;;20.92;48.62;99730.59;7307383;19;129443;-43
2022/04/27 01:25:54;;;;;;;39.47;3.97;;;;;;;21.01;48.99;99728.97;7310910;19;129139;-42
2022/04/27 01:28:21;;;;;;;22.80;2.25;;;;;;;21.00;49.35;99724.72;7317458;19;128997;-38
2022/04/27 01:30:47;;;;;;;23.73;2.40;;;;;;;21.02;49.94;99733.25;7317020;19;130231;-36
2022/04/27 01:33:13;;;;;;;26.70;2.43;;;;;;;21.04;49.40;99732.16;7317086;19;129210;-36
2022/04/27 01:35:40;;;;;;;31.88;3.25;;;;;;;21.04;49.50;99734.75;7316196;19;130845;-37
2022/04/27 01:38:07;;;;;;;15.77;1.67;;;;;;;21.05;49.45;99735.59;7316031;19;128851;-38
2022/04/27 01:40:32;;;;;;;;;;;;;;;21.12;50.46;99740.16;7316906;19;130645;-36
2022/04/27 01:42:58;;;;;;;29.53;2.80;;;;;;;21.06;49.91;99735.47;7314376;19;129142;-37
2022/04/27 01:45:23;;;;;;;39.33;4.35;;;;;;;21.09;49.95;99742.25;7315705;19;128960;-40
2022/04/27 01:47:49;;;;;;;28.45;2.80;;;;;;;21.11;50.39;99740.28;7315771;19;129130;-35
2022/04/27 01:50:14;;;;;;;21.67;2.40;;;;;;;20.63;47.77;99735.69;7314956;19;129792;-39
2022/04/27 01:55:23;;;;;;;43.60;4.72;;;;;;;20.64;46.94;99746.97;7315481;19;129037;-34
2022/04/27 01:57:48;;;;;;;29.35;2.85;;;;;;;20.62;47.03;99738.44;7313899;19;151138;-40
2022/04/27 02:00:15;;;;;;;23.17;2.23;;;;;;;20.66;46.89;99755.47;7315114;19;159137;-38
2022/04/27 02:02:40;;;;;;;7.28;0.98;;;;;;;20.70;46.90;99754.28;7313715;19;129216;-42
2022/04/27 02:05:05;;;;;;;19.08;2.00;;;;;;;20.72;46.82;99752.38;7316512;19;129691;-36
2022/04/27 02:07:31;;;;;;;24.30;2.60;;;;;;;20.72;46.47;99757.59;7315419;19;129482;-37
2022/04/27 02:09:56;;;;;;;20.85;2.17;;;;;;;20.76;46.26;99747.72;7314663;19;158338;-37
2022/04/27 02:12:21;;;;;;;26.87;2.80;;;;;;;20.78;46.09;99754.44;7311756;19;158498;-34
2022/04/27 02:14:47;;;;;;;24.75;2.42;;;;;;;20.96;46.93;99752.88;7315827;19;129078;-38
2022/04/27 02:17:12;;;;;;;15.97;1.80;;;;;;;20.99;48.17;99757.84;7313468;19;154048;-37
2022/04/27 02:19:37;;;;;;;20.52;2.20;;;;;;;20.96;49.13;99750.25;7316442;19;129470;-34
2022/04/27 02:22:03;;;;;;;18.75;1.92;;;;;;;21.01;49.18;99755.09;7313728;19;131016;-37
2022/04/27 02:24:29;;;;;;;15.05;1.40;;;;;;;21.03;49.40;99755.81;7315732;19;128787;-38
2022/04/27 02:26:54;;;;;;;25.45;2.55;;;;;;;21.05;48.87;99757.34;7314276;19;129066;-36
2022/04/27 02:29:21;;;;;;;25.13;2.42;;;;;;;21.10;50.08;99749.94;7314967;19;129907;-41
2022/04/27 02:31:46;;;;;;;24.63;2.53;;;;;;;21.08;50.34;99751.84;7312996;19;129764;-36
2022/04/27 02:34:11;;;;;;;25.85;2.45;;;;;;;21.10;50.38;99749.09;7314433;19;153538;-41
2022/04/27 02:36:36;;;;;;;25.65;2.45;;;;;;;21.10;49.90;99752.56;7309215;19;153773;-37
2022/04/27 02:39:02;;;;;;;16.00;1.65;;;;;;;21.10;49.96;99749.09;7313609;19;140688;-37
2022/04/27 02:41:27;;;;;;;17.17;1.77;;;;;;;21.13;50.73;99749.66;7314403;19;131263;-37
2022/04/27 02:43:54;;;;;;;13.23;1.58;;;;;;;21.09;49.78;99753.50;7315834;19;130498;-37
2022/04/27 02:46:19;;;;;;;16.25;1.88;;;;;;;20.73;47.68;99756.63;7314890;19;129574;-39
2022/04/27 02:54:12;;;;;;;26.08;2.25;;;;;;;20.77;46.89;99764.06;7316095;19;129151;-34
2022/04/27 02:56:37;;;;;;;10.02;1.20;;;;;;;20.80;45.99;99768.22;7313051;19;153518;-42
2022/04/27 02:59:03;;;;;;;14.88;1.48;;;;;;;20.78;46.40;99775.34;7315252;19;146940;-35
2022/04/27 03:01:28;;;;;;;16.13;1.63;;;;;;;20.79;46.00;99773.56;7313099;19;158631;-36
2022/04/27 03:03:53;;;;;;;57.67;5.35;;;;;;;20.79;46.55;99776.19;7307263;19;154620;-33
2022/04/27 03:06:18;;;;;;;19.95;2.10;;;;;;;20.79;46.20;99781.41;7312409;19;141364;-40
2022/04/27 03:08:44;;;;;;;20.60;2.22;;;;;;;20.93;47.42;99778.44;7313665;19;157447;-35
2022/04/27 03:11:09;;;;;;;13.65;1.65;;;;;;;20.93;48.48;99776.66;7312738;19;158024;-33
2022/04/27 03:13:34;;;;;;;19.20;2.10;;;;;;;21.00;49.59;99777.84;7313180;19;155134;-40
2022/04/27 03:15:59;;;;;;;18.17;2.00;;;;;;;21.03;49.50;99779.34;7311561;19;153909;-35
2022/04/27 03:18:25;;;;;;;21.63;2.40;;;;;;;21.05;50.08;99780.88;7312598;19;158432;-34
2022/04/27 03:20:50;;;;;;;25.48;2.70;;;;;;;21.06;49.91;99787.75;7313137;19;129560;-40
2022/04/27 03:23:16;;;;;;;19.10;1.95;;;;;;;21.07;49.96;99786.81;7314439;19;129478;-34
2022/04/27 03:25:42;;;;;;;7.90;1.13;;;;;;;21.06;49.98;99790.38;7312645;19;129570;-42
2022/04/27 03:28:07;;;;;;;25.48;2.28;;;;;;;21.10;50.13;99781.31;7313919;19;131003;-38
2022/04/27 03:30:32;;;;;;;13.50;1.35;;;;;;;21.03;50.05;99774.94;7313392;19;143160;-35
2022/04/27 03:32:59;;;;;;;26.92;3.10;;;;;;;21.12;50.85;99789.81;7309731;19;155545;-42
2022/04/27 03:35:25;;;;;;;41.65;4.38;;;;;;;21.11;50.66;99792.56;7312994;19;129149;-38
2022/04/27 03:37:50;;;;;;;26.47;2.80;;;;;;;21.06;48.54;99800.81;7312998;19;129212;-35
2022/04/27 03:40:16;;;;;;;25.88;2.80;;;;;;;20.77;47.74;99789.38;7311307;19;159150;-38
2022/04/27 03:42:41;;;;;;;20.67;2.05;;;;;;;20.73;47.34;99793.19;7311826;19;129258;-38
2022/04/27 03:45:06;;;;;;;7.43;1.05;;;;;;;20.69;46.78;99791.81;7311805;19;152102;-38
2022/04/27 03:47:32;;;;;;;19.27;2.00;;;;;;;20.73;46.73;99803.66;7312145;19;130131;-35
2022/04/27 03:50:04;;;;;;;30.00;2.80;;;;;;;20.74;46.66;99794.88;7312248;19;129258;-34
2022/04/27 03:52:29;;;;;;;18.75;1.98;;;;;;;20.66;46.92;99808.56;7311440;19;129033;-37
2022/04/27 03:54:54;;;;;;;27.80;2.65;;;;;;;20.76;46.26;99806.00;7312593;19;128993;-38
2022/04/27 03:57:20;;;;;;;19.90;2.07;;;;;;;20.82;46.12;99820.34;7308956;19;153560;-39
2022/04/27 03:59:45;;;;;;;25.17;2.43;;;;;;;20.78;46.21;99817.16;7310445;19;159073;-36
2022/04/27 04:02:10;;;;;;;20.63;2.23;;;;;;;20.94;47.47;99822.72;7308946;19;154252;-35
2022/04/27 04:04:35;;;;;;;22.77;2.13;;;;;;;20.96;48.89;99826.06;7311068;19;154330;-39
2022/04/27 04:07:02;;;;;;;3.35;0.65;;;;;;;21.01;48.84;99826.53;7308545;19;158265;-37
2022/04/27 04:09:27;;;;;;;21.42;2.35;;;;;;;21.00;49.23;99824.88;7312156;19;129159;-35
2022/04/27 04:11:53;;;;;;;27.37;2.93;;;;;;;21.06;49.61;99831.34;7307826;19;154338;-36
2022/04/27 04:14:18;;;;;;;31.20;3.25;;;;;;;21.08;49.82;99826.81;7310615;19;153830;-39
2022/04/27 04:16:43;;;;;;;16.85;2.17;;;;;;;20.99;50.31;99820.59;7309063;19;158277;-37
2022/04/27 04:19:10;;;;;;;25.17;2.47;;;;;;;21.10;50.00;99848.44;7310847;19;158369;-38
2022/04/27 04:21:35;;;;;;;21.33;2.13;;;;;;;21.12;50.20;99854.38;7312203;19;129177;-35
2022/04/27 04:24:00;;;;;;;21.83;2.38;;;;;;;21.08;49.86;99851.19;7307172;19;129455;-41
2022/04/27 04:29:09;;;;;;;20.38;1.95;;;;;;;21.10;50.96;99851.91;7311315;19;129418;-34
2022/04/27 04:31:34;;;;;;;15.82;1.52;;;;;;;20.85;48.24;99854.03;7310404;19;128910;-42
2022/04/27 04:34:00;;;;;;;22.27;2.17;;;;;;;20.69;47.26;99855.31;7309598;19;153818;-35
2022/04/27 04:36:25;;;;;;;19.60;1.90;;;;;;;20.74;47.19;99861.00;7308560;19;158283;-35
2022/04/27 04:38:50;;;;;;;26.43;2.77;;;;;;;20.66;46.63;99865.19;7308272;19;158840;-37
2022/04/27 04:41:15;;;;;;;23.50;2.43;;;;;;;20.70;46.48;99861.38;7308581;19;154547;-37
2022/04/27 04:43:41;;;;;;;31.93;2.93;;;;;;;20.76;46.71;99873.13;7308995;19;154242;-37
2022/04/27 04:46:06;;;;;;;21.37;2.20;;;;;;;20.71;46.85;99870.88;7307661;19;158276;-34
2022/04/27 04:48:31;;;;;;;19.20;1.92;;;;;;;20.76;46.10;99875.72;7311171;19;129641;-41
2022/04/27 04:50:56;;;;;;;29.83;2.95;;;;;;;20.78;46.80;99879.88;7309202;19;155096;-34
2022/04/27 04:53:22;;;;;;;19.40;2.08;;;;;;;20.79;46.46;99886.75;7309111;19;154294;-39
2022/04/27 04:55:47;;;;;;;20.75;2.45;;;;;;;20.81;46.39;99887.44;7307820;19;159208;-35
2022/04/27 04:58:12;;;;;;;45.50;4.13;;;;;;;20.97;48.14;99895.72;7307834;19;158449;-41
2022/04/27 05:00:38;;;;;;;13.98;1.65;;;;;;;20.98;48.69;99892.13;7310864;19;154503;-39
2022/04/27 05:03:03;;;;;;;31.10;2.80;;;;;;;21.00;48.41;99895.44;7312364;19;129202;-36
2022/04/27 05:05:28;;;;;;;44.03;4.72;;;;;;;21.03;49.72;99897.81;7314150;19;129225;-36
2022/04/27 05:07:54;;;;;;;33.35;3.38;;;;;;;21.07;50.00;99912.28;7315314;19;130491;-43
2022/04/27 05:10:19;;;;;;;23.83;2.65;;;;;;;21.09;49.98;99920.81;7316111;19;154223;-33
2022/04/27 05:12:44;;;;;;;20.67;2.08;;;;;;;21.10;50.04;99926.88;7313046;19;146331;-38
2022/04/27 05:15:11;;;;;;;23.52;2.30;;;;;;;21.09;50.10;99920.81;7315182;19;129384;-44
2022/04/27 05:17:37;;;;;;;6.28;1.00;;;;;;;21.06;50.07;99926.28;7316835;19;129656;-42
2022/04/27 05:20:02;;;;;;;21.10;1.95;;;;;;;21.08;49.60;99932.22;7313051;19;154600;-32
2022/04/27 05:22:33;;;;;;;17.95;2.20;;;;;;;21.08;50.77;99932.22;7315619;19;129191;-39
2022/04/27 05:25:01;;;;;;;21.05;2.20;;;;;;;21.07;50.78;99941.03;7316718;19;129531;-40
2022/04/27 05:27:26;;;;;;;20.63;2.30;;;;;;;20.83;47.74;99935.19;7313876;19;129641;-41
2022/04/27 05:32:45;;;;;;;21.30;1.95;;;;;;;20.60;46.71;99923.19;7314116;19;129330;-40
2022/04/27 05:35:11;;;;;;;21.30;2.28;;;;;;;20.65;46.98;99944.53;7316595;19;130298;-39
2022/04/27 05:37:37;;;;;;;17.88;1.98;;;;;;;20.65;46.79;99949.75;7315720;19;129206;-43
2022/04/27 05:40:04;;;;;;;20.85;2.17;;;;;;;20.69;47.04;99953.78;7315682;19;129208;-41
2022/04/27 05:42:30;;;;;;;28.92;2.95;;;;;;;20.67;46.65;99953.91;7315076;19;129357;-36
2022/04/27 05:44:55;;;;;;;18.52;2.00;;;;;;;20.67;46.35;99955.69;7314509;19;130709;-36
2022/04/27 05:47:23;;;;;;;29.55;2.95;;;;;;;20.74;46.23;99956.88;7314827;19;139747;-37
2022/04/27 05:49:50;;;;;;;39.42;3.65;;;;;;;20.76;46.44;99959.34;7316774;19;129110;-37
2022/04/27 05:52:15;;;;;;;;;;;;;;;20.76;45.81;99962.75;7316271;19;129201;-43
2022/04/27 05:54:40;;;;;;;24.57;2.57;;;;;;;20.84;46.55;99952.50;7315962;19;129098;-34
2022/04/27 05:57:06;;;;;;;22.07;2.07;;;;;;;20.85;47.01;99961.19;7314400;19;159436;-38
2022/04/27 05:59:31;;;;;;;23.07;2.37;;;;;;;20.96;47.79;99964.56;7315534;19;154460;-33
2022/04/27 06:01:56;;;;;;;33.10;3.20;;;;;;;20.87;48.81;99951.44;7314751;19;136195;-38
2022/04/27 06:04:21;;;;;;;19.60;2.15;;;;;;;20.97;49.05;99975.88;7314217;19;157165;-39
2022/04/27 06:06:47;;;;;;;28.50;2.85;;;;;;;21.01;48.98;99988.59;7315306;19;129859;-36
2022/04/27 06:09:13;;;;;;;24.33;2.45;;;;;;;21.03;49.91;99981.44;7314794;19;154900;-42
2022/04/27 06:11:38;;;;;;;15.43;1.85;;;;;;;20.96;49.65;99966.38;7315281;19;128807;-39
2022/04/27 06:14:04;;;;;;;19.50;2.08;;;;;;;21.06;49.87;99978.56;7315672;19;129641;-43
2022/04/27 06:16:32;;;;;;;25.42;2.58;;;;;;;21.05;49.73;99984.78;7314957;19;129128;-40
2022/04/27 06:18:57;;;;;;;25.38;2.50;;;;;;;21.03;50.13;99980.63;7315064;19;128891;-37
2022/04/27 06:21:23;;;;;;;17.60;1.95;;;;;;;21.08;49.98;99989.75;7315332;19;129335;-36
2022/04/27 06:23:48;;;;;;;33.87;3.87;;;;;;;21.07;50.33;99990.72;7313122;19;158477;-42
2022/04/27 06:26:14;;;;;;;23.17;2.17;;;;;;;21.09;50.76;99999.22;7311174;19;159699;-34
2022/04/27 06:28:39;;;;;;;22.48;2.28;;;;;;;20.79;47.45;99996.50;7313301;19;129082;-37
2022/04/27 06:31:05;;;;;;;18.50;1.63;;;;;;;20.67;46.79;99987.88;7313467;19;129364;-43
2022/04/27 06:33:30;;;;;;;18.53;1.90;;;;;;;20.65;47.28;99999.41;7310617;19;158883;-32
2022/04/27 06:35:55;;;;;;;26.92;2.38;;;;;;;20.71;46.62;100010.19;7312754;19;129395;-36
2022/04/27 06:38:20;;;;;;;28.00;2.90;;;;;;;20.64;47.02;100014.22;7314400;19;135739;-43
2022/04/27 06:40:46;;;;;;;15.88;2.10;;;;;;;20.67;46.70;100010.56;7314527;19;139534;-34
2022/04/27 06:43:11;;;;;;;28.38;2.63;;;;;;;20.69;46.41;100011.28;7312724;19;129109;-41
2022/04/27 06:45:36;;;;;;;21.23;2.28;;;;;;;20.76;46.07;100015.03;7311358;19;159221;-38
2022/04/27 06:48:05;;;;;;;16.58;1.73;;;;;;;20.77;46.13;100014.09;7315848;19;129383;-40
2022/04/27 06:50:30;;;;;;;10.25;1.40;;;;;;;20.79;45.96;100011.34;7314738;19;128949;-35
2022/04/27 06:52:59;;;;;;;23.52;2.55;;;;;;;20.76;45.71;100017.63;7310686;19;158988;-36
2022/04/27 06:55:25;;;;;;;30.70;3.17;;;;;;;20.95;46.26;100033.50;7313787;19;130445;-35
2022/04/27 06:57:51;;;;;;;28.55;2.75;;;;;;;20.93;47.88;100032.78;7313716;19;129073;-31
2022/04/27 07:00:16;;;;;;;78.03;6.75;;;;;;;20.98;48.58;100037.66;7312591;19;136052;-36
2022/04/27 07:02:43;;;;;;;34.22;3.10;;;;;;;21.02;49.21;100034.69;7310123;19;129640;-43
2022/04/27 07:05:12;;;;;;;26.07;2.97;;;;;;;21.05;49.78;100037.06;7314251;19;138818;-37
2022/04/27 07:07:37;;;;;;;21.02;2.28;;;;;;;21.05;49.95;100039.69;7314582;19;129163;-33
2022/04/27 07:10:03;;;;;;;34.80;2.95;;;;;;;20.93;49.58;100017.09;7314124;19;129267;-36
2022/04/27 07:12:28;;;;;;;41.55;3.63;;;;;;;21.09;50.39;100048.91;7311459;19;132094;-39
2022/04/27 07:14:54;;;;;;;37.03;3.53;;;;;;;21.07;50.08;100052.63;7313710;19;141499;-33
2022/04/27 07:17:19;;;;;;;18.63;2.03;;;;;;;21.08;50.57;100049.88;7312764;19;129496;-37
2022/04/27 07:19:45;;;;;;;24.55;2.47;;;;;;;21.02;50.53;100039.94;7315659;19;129619;-35
2022/04/27 07:22:11;;;;;;;11.90;1.60;;;;;;;21.10;50.44;100055.81;7312288;19;129252;-40
2022/04/27 07:24:37;;;;;;;14.80;1.40;;;;;;;21.06;49.08;100062.22;7313367;19;129151;-38
2022/04/27 07:27:03;;;;;;;15.52;1.55;;;;;;;20.62;47.38;100057.97;7313217;19;128798;-41
2022/04/27 07:29:28;;;;;;;26.00;2.67;;;;;;;20.62;46.93;100067.56;7314373;19;129091;-41
2022/04/27 07:31:54;;;;;;;24.23;2.78;;;;;;;20.67;47.44;100060.19;7311964;19;129142;-31
2022/04/27 07:34:19;;;;;;;22.38;2.22;;;;;;;20.66;46.53;100063.75;7314375;19;130065;-36
2022/04/27 07:36:44;;;;;;;29.38;3.05;;;;;;;20.59;46.73;100052.16;7310530;19;154579;-45
2022/04/27 07:39:10;;;;;;;5.20;0.95;;;;;;;20.71;46.29;100079.88;7314391;19;128916;-35
2022/04/27 07:41:35;;;;;;;16.85;1.63;;;;;;;20.74;46.57;100084.88;7313324;19;129453;-38
2022/04/27 07:44:01;;;;;;;16.33;1.67;;;;;;;20.76;46.51;100080.34;7312409;19;159013;-33
2022/04/27 07:46:27;;;;;;;14.90;1.63;;;;;;;20.76;46.49;100075.13;7312751;19;129149;-37
2022/04/27 07:48:52;;;;;;;27.48;3.08;;;;;;;20.81;46.05;100085.22;7312793;19;129295;-36
2022/04/27 07:51:17;;;;;;;29.98;2.88;;;;;;;20.78;45.68;100083.69;7310943;19;158447;-44
2022/04/27 07:53:43;;;;;;;15.98;1.77;;;;;;;20.82;46.34;100079.03;7311612;19;129585;-35
2022/04/27 07:56:09;;;;;;;4.57;0.73;;;;;;;20.89;47.18;100064.53;7312980;19;128948;-35
2022/04/27 07:58:34;;;;;;;17.02;1.80;;;;;;;20.95;48.45;100088.38;7314092;19;129248;-36
2022/04/27 08:01:01;;;;;;;14.85;1.63;;;;;;;20.99;49.10;100087.19;7312650;19;129260;-43
2022/04/27 08:03:26;;;;;;;18.10;1.98;;;;;;;21.01;49.38;100100.97;7313947;19;129954;-37
2022/04/27 08:05:52;;;;;;;14.90;1.95;;;;;;;21.04;49.87;100094.69;7312934;19;129043;-39
2022/04/27 08:08:18;;;;;;;16.25;1.80;;;;;;;21.03;49.40;100098.25;7313487;19;128971;-36
2022/04/27 08:10:43;;;;;;;22.07;2.23;;;;;;;21.06;49.82;100093.59;7313283;19;139428;-36
2022/04/27 08:13:08;;;;;;;13.70;1.60;;;;;;;21.09;49.56;100097.78;7309338;19;158772;-37
2022/04/27 08:15:33;;;;;;;21.23;2.17;;;;;;;21.06;50.25;100098.84;7312087;19;150124;-34
2022/04/27 08:18:01;;;;;;;8.88;1.25;;;;;;;21.06;49.99;100101.44;7311593;19;154590;-35
2022/04/27 08:23:17;;;;;;;17.10;2.10;;;;;;;21.08;50.52;100106.56;7313565;19;129095;-41
2022/04/27 08:25:44;;;;;;;21.52;2.20;;;;;;;20.87;48.26;100110.88;7311829;19;129367;-40
2022/04/27 08:28:10;;;;;;;18.88;1.75;;;;;;;20.69;47.06;100113.16;7312411;19;128883;-36
2022/04/27 08:30:38;;;;;;;17.00;1.70;;;;;;;20.64;46.61;100110.09;7312508;19;129388;-37
2022/04/27 08:33:04;;;;;;;16.02;1.67;;;;;;;20.70;46.87;100118.25;7309599;19;131171;-37
2022/04/27 08:35:31;;;;;;;30.73;3.13;;;;;;;20.68;46.81;100124.53;7308837;19;128838;-38
2022/04/27 08:37:57;;;;;;;26.33;2.63;;;;;;;20.64;46.54;100123.16;7311683;19;129072;-41
2022/04/27 08:40:24;;;;;;;21.30;2.23;;;;;;;20.67;46.48;100121.13;7312055;19;131092;-41
2022/04/27 08:42:50;;;;;;;23.10;2.33;;;;;;;20.66;46.44;100126.44;7310444;19;130006;-37
2022/04/27 08:45:16;;;;;;;25.85;2.45;;;;;;;20.72;46.52;100120.75;7311728;19;129263;-42
2022/04/27 08:47:41;;;;;;;20.57;2.17;;;;;;;20.82;46.57;100124.31;7313042;19;129030;-45
2022/04/27 08:50:13;;;;;;;15.38;1.60;;;;;;;20.76;45.84;100122.16;7311814;19;158343;-36
2022/04/27 08:52:40;;;;;;;13.23;1.42;;;;;;;20.81;46.40;100122.63;7309717;19;131208;-39
2022/04/27 08:55:06;;;;;;;21.90;2.30;;;;;;;20.81;45.86;100125.22;7310956;19;128956;-41
2022/04/27 08:57:31;;;;;;;17.10;1.73;;;;;;;20.96;47.35;100134.47;7311980;19;129115;-37
2022/04/27 08:59:57;;;;;;;23.87;2.50;;;;;;;20.97;48.47;100125.72;7310456;19;157672;-37
2022/04/27 09:02:24;;;;;;;18.53;1.90;;;;;;;20.89;49.30;100116.81;7308449;19;158673;-38
2022/04/27 09:05:04;;;;;;;28.75;2.90;;;;;;;21.04;49.84;100129.50;7312022;19;129068;-35
2022/04/27 09:07:41;;;;;;;19.33;2.03;;;;;;;21.02;49.67;100134.03;7308445;19;154210;-38
2022/04/27 09:10:09;;;;;;;10.80;1.27;;;;;;;21.06;49.82;100135.44;7312964;19;130438;-39
2022/04/27 09:12:46;;;;;;;11.95;1.50;;;;;;;21.05;50.48;100139.00;7309080;19;130492;-37
2022/04/27 09:15:13;;;;;;;17.55;1.83;;;;;;;21.10;50.03;100136.03;7311531;19;129383;-42
2022/04/27 09:23:21;;;;;;;18.05;1.92;;;;;;;20.99;49.95;100123.81;7309553;19;128963;-40
2022/04/27 09:25:47;;;;;;;23.35;2.40;;;;;;;20.92;48.53;100138.31;7309698;19;129055;-40
2022/04/27 09:28:12;;;;;;;17.48;1.75;;;;;;;20.67;47.21;100143.81;7310291;19;129041;-45
2022/04/27 09:30:37;;;;;;;15.80;1.70;;;;;;;20.65;47.28;100140.47;7309050;19;158435;-37
2022/04/27 09:33:02;;;;;;;19.40;1.80;;;;;;;20.72;46.61;100142.47;7306976;19;158602;-37
2022/04/27 09:35:30;;;;;;;44.80;4.63;;;;;;;20.61;46.90;100124.19;7309360;19;129188;-37
2022/04/27 09:37:55;;;;;;;27.75;2.80;;;;;;;20.72;46.97;100139.03;7310585;19;129488;-36
2022/04/27 09:40:20;;;;;;;19.48;2.47;;;;;;;20.77;46.25;100128.22;7308917;19;143696;-38
2022/04/27 09:42:46;;;;;;;20.00;2.23;;;;;;;20.78;46.55;100130.72;7306585;19;159020;-36
2022/04/27 09:45:22;;;;;;;20.58;1.85;;;;;;;20.77;46.60;100129.06;7310639;19;129730;-38
2022/04/27 09:48:01;;;;;;;22.98;2.25;;;;;;;20.76;46.59;100131.81;7316035;19;128794;-41
2022/04/27 09:50:44;;;;;;;21.02;2.10;;;;;;;20.73;46.05;100127.63;7317703;19;129824;-39
2022/04/27 09:53:11;;;;;;;5.78;0.85;;;;;;;21.00;46.07;100130.72;7315188;19;132842;-36
2022/04/27 09:55:43;;;;;;;25.45;2.45;;;;;;;20.93;47.78;100133.88;7316390;19;129123;-38
2022/04/27 09:58:12;;;;;;;15.60;1.63;;;;;;;20.94;49.47;100122.50;7316542;19;129367;-40
2022/04/27 10:00:42;;;;;;;18.75;1.85;;;;;;;20.97;49.69;100130.97;7316855;19;130492;-36
2022/04/27 10:03:07;;;;;;;20.92;1.90;;;;;;;20.98;49.10;100122.16;7314947;19;130391;-36
2022/04/27 10:05:32;;;;;;;10.55;1.42;;;;;;;21.03;50.06;100124.38;7315511;19;129309;-36
2022/04/27 10:08:00;;;;;;;22.65;2.28;;;;;;;21.00;50.00;100120.25;7314561;19;154955;-34
2022/04/27 10:10:25;;;;;;;16.50;1.67;;;;;;;21.04;50.24;100126.88;7317331;19;129483;-35
2022/04/27 10:12:51;;;;;;;20.38;2.25;;;;;;;21.05;49.74;100127.72;7314351;19;129511;-37
2022/04/27 10:15:17;;;;;;;30.75;3.00;;;;;;;21.03;50.51;100119.16;7316337;19;129078;-35
2022/04/27 10:17:42;;;;;;;26.13;2.67;;;;;;;21.01;49.84;100115.81;7314262;19;136359;-37
2022/04/27 10:20:27;;;;;;;6.97;1.00;;;;;;;21.08;50.71;100117.84;7315431;19;129261;-37
2022/04/27 10:22:52;;;;;;;18.88;1.95;;;;;;;20.88;48.26;100115.97;7314308;19;129735;-37
2022/04/27 10:25:18;;;;;;;35.17;3.53;;;;;;;20.64;47.66;100112.69;7314486;19;154016;-38
2022/04/27 10:27:44;;;;;;;7.90;1.33;;;;;;;20.62;47.20;100119.81;7314893;19;129033;-40
2022/04/27 10:30:12;;;;;;;23.67;2.30;;;;;;;20.62;46.66;100122.44;7316097;19;130364;-33
2022/04/27 10:32:39;;;;;;;21.00;2.03;;;;;;;20.61;46.80;100118.97;7312491;19;129047;-37
2022/04/27 10:35:14;;;;;;;;;;;;;;;20.63;46.88;100121.47;7315025;19;129653;-38
2022/04/27 10:37:59;;;;;;;16.73;1.65;;;;;;;20.72;46.87;100118.13;7315415;19;128894;-39
2022/04/27 10:40:25;;;;;;;25.50;2.47;;;;;;;20.69;46.33;100113.16;7315009;19;129531;-36
2022/04/27 10:42:50;;;;;;;10.37;1.57;;;;;;;20.72;46.84;100110.31;7312975;19;129514;-34
2022/04/27 10:45:23;;;;;;;22.42;2.30;;;;;;;20.79;46.45;100108.88;7314170;19;153620;-34
2022/04/27 10:47:48;;;;;;;25.73;2.40;;;;;;;20.80;46.71;100097.44;7315785;19;129191;-36
2022/04/27 10:50:14;;;;;;;6.03;0.80;;;;;;;20.78;45.63;100101.97;7314509;19;149148;-40
2022/04/27 10:52:43;;;;;;;24.92;2.38;;;;;;;20.81;47.24;100085.22;7313125;19;129139;-38
2022/04/27 10:55:34;;;;;;;20.45;1.73;;;;;;;20.91;48.49;100107.88;7315264;19;128919;-39
2022/04/27 10:58:17;;;;;;;15.98;1.77;;;;;;;20.94;49.26;100110.22;7313320;19;129406;-35
2022/04/27 11:01:03;;;;;;;16.30;1.67;;;;;;;20.95;49.00;100106.69;7313498;19;129332;-38
2022/04/27 11:03:29;;;;;;;17.88;1.83;;;;;;;21.00;49.79;100117.63;7314425;19;129489;-37
2022/04/27 11:05:59;;;;;;;42.93;3.80;;;;;;;20.99;50.46;100108.13;7313373;19;129064;-39
2022/04/27 11:08:59;;;;;;;7.88;1.10;;;;;;;20.94;50.72;100093.75;7314112;19;129018;-38
2022/04/27 11:11:27;;;;;;;21.02;2.15;;;;;;;21.02;49.98;100118.34;7314079;19;129723;-37
2022/04/27 11:14:05;;;;;;;22.42;2.20;;;;;;;20.98;50.02;100105.63;7312534;19;129735;-35
2022/04/27 11:16:42;;;;;;;15.00;1.60;;;;;;;21.07;50.91;100124.03;7313723;19;129098;-34
2022/04/27 11:19:08;;;;;;;17.83;1.80;;;;;;;21.04;50.30;100120.84;7315723;19;129285;-44
2022/04/27 11:21:33;;;;;;;14.95;1.50;;;;;;;20.94;49.17;100123.31;7313979;19;130179;-44
2022/04/27 11:23:59;;;;;;;7.20;1.10;;;;;;;20.67;47.44;100117.66;7313735;19;129105;-39
2022/04/27 11:26:24;;;;;;;20.38;2.05;;;;;;;20.61;47.21;100123.34;7313954;19;128865;-35
2022/04/27 11:28:53;;;;;;;27.98;2.70;;;;;;;20.63;47.42;100134.53;7315021;19;129310;-41
2022/04/27 11:31:18;;;;;;;34.50;3.22;;;;;;;20.64;46.36;100128.38;7313752;19;130417;-38
2022/04/27 11:33:44;;;;;;;17.73;1.75;;;;;;;20.66;46.85;100123.81;7311817;19;130416;-43